createdAt,value
2017-12-08T00:00:18.108Z,14.20
2017-12-08T00:02:45.596Z,20.30
2017-12-08T00:05:13.126Z,18.27
2017-12-08T00:07:40.615Z,16.10
2017-12-08T00:10:08.104Z,17.93
2017-12-08T00:12:35.789Z,15.43
2017-12-08T00:15:03.280Z,17.33
2017-12-08T00:17:30.774Z,16.00
2017-12-08T00:19:58.304Z,15.20
2017-12-08T00:22:25.786Z,16.00
2017-12-08T00:24:53.270Z,16.93
2017-12-08T00:27:20.808Z,17.97
2017-12-08T00:29:48.290Z,19.90
2017-12-08T00:32:15.766Z,16.17
2017-12-08T00:34:43.325Z,16.23
2017-12-08T00:37:10.821Z,14.60
2017-12-08T00:39:38.311Z,15.50
2017-12-08T00:42:05.843Z,16.60
2017-12-08T00:44:33.324Z,15.63
2017-12-08T00:47:00.801Z,13.10
2017-12-08T00:49:28.320Z,14.07
2017-12-08T00:51:55.801Z,18.80
2017-12-08T00:54:23.284Z,14.57
2017-12-08T00:56:50.804Z,15.03
2017-12-08T00:59:18.283Z,17.20
2017-12-08T01:01:45.855Z,17.23
2017-12-08T01:04:13.379Z,15.47
2017-12-08T01:06:40.872Z,15.30
2017-12-08T01:09:08.429Z,15.53
2017-12-08T01:11:35.954Z,15.97
2017-12-08T01:14:03.431Z,14.60
2017-12-08T01:16:30.907Z,13.47
2017-12-08T01:18:58.444Z,16.50
2017-12-08T01:21:25.918Z,16.77
2017-12-08T01:23:53.474Z,14.20
2017-12-08T01:26:21.007Z,14.27
2017-12-08T01:28:48.500Z,14.40
2017-12-08T01:31:15.979Z,14.03
2017-12-08T01:33:43.614Z,14.97
2017-12-08T01:36:11.095Z,13.20
2017-12-08T01:38:38.582Z,13.90
2017-12-08T01:41:06.107Z,12.40
2017-12-08T01:43:33.597Z,12.67
2017-12-08T01:46:01.085Z,14.37
2017-12-08T01:48:28.607Z,11.20
2017-12-08T01:50:56.087Z,14.60
2017-12-08T01:53:23.664Z,14.20
2017-12-08T01:55:51.199Z,13.77
2017-12-08T01:58:18.681Z,11.63
2017-12-08T02:00:46.168Z,12.10
2017-12-08T02:03:13.966Z,12.33
2017-12-08T02:05:41.448Z,12.87
2017-12-08T02:08:08.938Z,13.27
2017-12-08T02:10:36.459Z,14.00
2017-12-08T02:13:04.060Z,13.30
2017-12-08T02:15:31.548Z,11.10
2017-12-08T02:17:59.071Z,12.77
2017-12-08T02:20:26.558Z,11.80
2017-12-08T02:22:54.046Z,12.93
2017-12-08T02:25:21.560Z,12.10
2017-12-08T02:27:49.097Z,12.67
2017-12-08T02:30:16.593Z,12.13
2017-12-08T02:32:44.118Z,10.60
2017-12-08T02:35:11.610Z,10.77
2017-12-08T02:37:39.105Z,11.37
2017-12-08T02:40:06.627Z,11.70
2017-12-08T02:42:34.113Z,11.20
2017-12-08T02:45:01.596Z,11.40
2017-12-08T02:47:29.115Z,10.77
2017-12-08T02:49:56.595Z,10.33
2017-12-08T02:52:24.070Z,9.93
2017-12-08T02:54:51.609Z,10.20
2017-12-08T02:57:19.098Z,9.80
2017-12-08T02:59:46.574Z,10.83
2017-12-08T03:02:14.088Z,10.00
2017-12-08T03:04:41.655Z,10.23
2017-12-08T03:07:09.132Z,9.27
2017-12-08T03:09:36.650Z,9.30
2017-12-08T03:12:04.127Z,8.83
2017-12-08T03:14:31.697Z,8.00
2017-12-08T03:16:59.200Z,8.40
2017-12-08T03:19:26.707Z,8.70
2017-12-08T03:21:54.187Z,9.20
2017-12-08T03:24:21.670Z,9.07
2017-12-08T03:26:49.196Z,9.40
2017-12-08T03:29:16.743Z,8.87
2017-12-08T03:31:44.225Z,8.37
2017-12-08T03:34:11.770Z,8.27
2017-12-08T03:36:39.252Z,9.27
2017-12-08T03:39:06.731Z,9.00
2017-12-08T03:41:34.301Z,9.13
2017-12-08T03:44:01.763Z,9.27
2017-12-08T03:46:29.239Z,8.90
2017-12-08T03:48:56.760Z,9.60
2017-12-08T03:51:24.241Z,9.10
2017-12-08T03:53:51.723Z,10.10
2017-12-08T03:56:19.287Z,9.27
2017-12-08T03:58:46.768Z,8.60
2017-12-08T04:01:14.240Z,6.67
2017-12-08T04:03:41.754Z,8.97
2017-12-08T04:06:09.231Z,7.53
2017-12-08T04:08:36.711Z,9.13
2017-12-08T04:11:04.224Z,7.90
2017-12-08T04:13:31.703Z,8.60
2017-12-08T04:15:59.185Z,8.73
2017-12-08T04:18:26.704Z,8.80
2017-12-08T04:20:54.190Z,7.80
2017-12-08T04:23:21.670Z,8.10
2017-12-08T04:25:49.203Z,9.20
2017-12-08T04:28:16.679Z,7.73
2017-12-08T04:30:44.166Z,7.73
2017-12-08T04:33:11.690Z,7.23
2017-12-08T04:35:39.202Z,7.10
2017-12-08T04:38:06.677Z,7.77
2017-12-08T04:40:34.198Z,7.10
2017-12-08T04:43:01.818Z,6.50
2017-12-08T04:45:29.287Z,6.77
2017-12-08T04:47:56.807Z,6.63
2017-12-08T04:50:24.289Z,6.97
2017-12-08T04:52:51.754Z,6.97
2017-12-08T04:55:19.262Z,7.17
2017-12-08T04:57:46.837Z,11.93
2017-12-08T05:00:14.342Z,6.07
2017-12-08T05:02:41.857Z,7.13
2017-12-08T05:05:09.334Z,6.20
2017-12-08T05:07:36.875Z,7.33
2017-12-08T05:10:04.403Z,7.20
2017-12-08T05:12:31.982Z,7.83
2017-12-08T05:14:59.453Z,7.67
2017-12-08T05:17:26.962Z,6.83
2017-12-08T05:19:54.440Z,6.90
2017-12-08T05:22:21.921Z,6.73
2017-12-08T05:24:49.451Z,6.40
2017-12-08T05:27:16.934Z,7.03
2017-12-08T05:29:44.498Z,6.77
2017-12-08T05:32:12.009Z,6.73
2017-12-08T05:34:39.489Z,6.33
2017-12-08T05:37:07.066Z,6.80
2017-12-08T05:39:34.587Z,6.43
2017-12-08T05:42:02.066Z,6.30
2017-12-08T05:44:29.703Z,5.97
2017-12-08T05:46:57.241Z,7.20
2017-12-08T05:49:24.711Z,6.10
2017-12-08T05:51:52.175Z,6.00
2017-12-08T05:54:19.679Z,6.77
2017-12-08T05:56:47.159Z,7.57
2017-12-08T05:59:14.678Z,6.93
2017-12-08T06:01:42.160Z,6.57
2017-12-08T06:04:09.639Z,6.50
2017-12-08T06:06:37.267Z,7.33
2017-12-08T06:09:04.740Z,7.47
2017-12-08T06:11:32.222Z,7.00
2017-12-08T06:13:59.743Z,7.00
2017-12-08T06:16:27.233Z,7.97
2017-12-08T06:18:54.708Z,7.20
2017-12-08T06:21:22.226Z,6.90
2017-12-08T06:23:49.770Z,7.53
2017-12-08T06:26:17.251Z,6.43
2017-12-08T06:28:44.819Z,7.17
2017-12-08T06:31:12.291Z,6.50
2017-12-08T06:33:39.873Z,7.17
2017-12-08T06:36:07.385Z,7.33
2017-12-08T06:38:34.923Z,12.37
2017-12-08T06:41:02.375Z,6.30
2017-12-08T06:43:29.899Z,10.20
2017-12-08T06:45:57.374Z,7.23
2017-12-08T06:48:24.864Z,6.50
2017-12-08T06:50:52.391Z,6.20
2017-12-08T06:53:19.871Z,7.13
2017-12-08T06:55:49.897Z,6.17
2017-12-08T06:58:17.406Z,6.17
2017-12-08T07:00:44.874Z,6.60
2017-12-08T07:03:12.352Z,5.93
2017-12-08T07:05:39.871Z,6.33
2017-12-08T07:08:07.342Z,6.40
2017-12-08T07:10:34.861Z,6.93
2017-12-08T07:13:02.394Z,6.07
2017-12-08T07:15:29.877Z,6.20
2017-12-08T07:17:57.370Z,6.60
2017-12-08T07:20:24.888Z,8.10
2017-12-08T07:22:52.366Z,6.90
2017-12-08T07:25:19.989Z,7.57
2017-12-08T07:27:47.571Z,7.47
2017-12-08T07:30:15.129Z,6.90
2017-12-08T07:32:42.630Z,6.97
2017-12-08T07:35:10.103Z,6.73
2017-12-08T07:37:37.587Z,8.37
2017-12-08T07:40:05.136Z,8.77
2017-12-08T07:42:32.632Z,6.93
2017-12-08T07:45:00.105Z,8.23
2017-12-08T07:47:27.711Z,9.20
2017-12-08T07:49:55.184Z,7.33
2017-12-08T07:52:22.736Z,7.50
2017-12-08T07:54:50.253Z,7.37
2017-12-08T07:57:17.769Z,7.20
2017-12-08T07:59:45.246Z,7.83
2017-12-08T08:02:12.762Z,6.80
2017-12-08T08:04:40.245Z,7.43
2017-12-08T08:07:07.727Z,8.07
2017-12-08T08:09:35.234Z,6.70
2017-12-08T08:12:02.726Z,7.03
2017-12-08T08:14:30.260Z,6.17
2017-12-08T08:16:57.780Z,5.70
2017-12-08T08:19:25.259Z,8.20
2017-12-08T08:21:52.823Z,6.77
2017-12-08T08:24:20.384Z,7.07
2017-12-08T08:26:47.943Z,5.47
2017-12-08T08:29:15.435Z,5.90
2017-12-08T08:31:42.951Z,6.53
2017-12-08T08:34:10.440Z,7.20
2017-12-08T08:36:38.003Z,6.93
2017-12-08T08:39:05.523Z,6.40
2017-12-08T08:41:33.006Z,6.47
2017-12-08T08:44:00.488Z,6.50
2017-12-08T08:46:28.130Z,6.43
2017-12-08T08:48:55.621Z,6.30
2017-12-08T08:51:23.137Z,5.50
2017-12-08T08:53:50.649Z,5.53
2017-12-08T08:56:18.140Z,6.30
2017-12-08T08:58:45.699Z,5.50
2017-12-08T09:01:13.211Z,4.50
2017-12-08T09:03:40.691Z,5.63
2017-12-08T09:06:08.172Z,5.27
2017-12-08T09:08:35.703Z,8.73
2017-12-08T09:11:03.180Z,5.90
2017-12-08T09:13:30.761Z,5.83
2017-12-08T09:15:58.270Z,5.70
2017-12-08T09:18:25.795Z,6.93
2017-12-08T09:20:53.339Z,6.57
2017-12-08T09:23:20.856Z,5.10
2017-12-08T09:25:48.336Z,5.93
2017-12-08T09:28:15.828Z,5.90
2017-12-08T09:30:43.345Z,5.43
2017-12-08T09:33:10.831Z,7.03
2017-12-08T09:35:38.326Z,5.50
2017-12-08T09:38:05.863Z,7.57
2017-12-08T09:40:33.347Z,5.73
2017-12-08T09:43:00.830Z,5.83
2017-12-08T09:45:28.371Z,7.60
2017-12-08T09:47:55.874Z,7.93
2017-12-08T09:50:23.355Z,6.50
2017-12-08T09:52:51.004Z,4.93
2017-12-08T09:55:18.486Z,5.23
2017-12-08T09:57:45.967Z,4.60
2017-12-08T10:00:13.481Z,5.53
2017-12-08T10:02:40.955Z,5.63
2017-12-08T10:05:08.431Z,5.43
2017-12-08T10:07:35.930Z,4.90
2017-12-08T10:10:03.490Z,5.30
2017-12-08T10:12:31.036Z,5.57
2017-12-08T10:14:58.511Z,4.50
2017-12-08T10:17:25.987Z,3.93
2017-12-08T10:19:53.524Z,4.60
2017-12-08T10:22:21.007Z,4.70
2017-12-08T10:24:48.518Z,3.77
2017-12-08T10:27:15.990Z,4.53
2017-12-08T10:29:43.560Z,3.90
2017-12-08T10:32:11.072Z,3.10
2017-12-08T10:34:38.542Z,2.73
2017-12-08T10:37:06.033Z,3.17
2017-12-08T10:39:33.613Z,2.13
2017-12-08T10:42:02.075Z,3.20
2017-12-08T10:44:29.548Z,2.80
2017-12-08T10:46:57.179Z,3.27
2017-12-08T10:49:24.651Z,3.40
2017-12-08T10:51:52.129Z,4.30
2017-12-08T10:54:19.687Z,3.53
2017-12-08T10:56:47.243Z,3.30
2017-12-08T10:59:14.713Z,2.70
2017-12-08T11:01:42.247Z,3.27
2017-12-08T11:04:09.826Z,2.83
2017-12-08T11:06:37.388Z,3.70
2017-12-08T11:09:04.921Z,3.50
2017-12-08T11:11:32.403Z,3.50
2017-12-08T11:13:59.872Z,3.33
2017-12-08T11:16:27.398Z,5.13
2017-12-08T11:18:54.889Z,5.20
2017-12-08T11:21:22.409Z,4.40
2017-12-08T11:23:49.944Z,4.13
2017-12-08T11:26:17.414Z,3.80
2017-12-08T11:28:44.893Z,3.67
2017-12-08T11:31:12.405Z,4.83
2017-12-08T11:33:39.898Z,3.47
2017-12-08T11:36:07.378Z,4.10
2017-12-08T11:38:35.021Z,4.80
2017-12-08T11:41:02.581Z,4.30
2017-12-08T11:43:30.060Z,3.20
2017-12-08T11:45:57.554Z,4.07
2017-12-08T11:48:25.040Z,3.73
2017-12-08T11:50:52.549Z,3.20
2017-12-08T11:53:20.058Z,3.50
2017-12-08T11:55:47.541Z,3.60
2017-12-08T11:58:15.107Z,3.80
2017-12-08T12:00:42.666Z,3.47
2017-12-08T12:03:10.188Z,3.40
2017-12-08T12:05:37.666Z,4.00
2017-12-08T12:08:05.149Z,8.17
2017-12-08T12:10:32.656Z,6.30
2017-12-08T12:13:00.137Z,8.33
2017-12-08T12:15:27.616Z,17.77
2017-12-08T12:17:55.112Z,3.17
2017-12-08T12:20:22.592Z,4.00
2017-12-08T12:22:50.124Z,3.63
2017-12-08T12:25:17.607Z,3.40
2017-12-08T12:27:45.091Z,4.53
2017-12-08T12:30:12.615Z,5.20
2017-12-08T12:32:40.094Z,3.60
2017-12-08T12:35:07.568Z,4.83
2017-12-08T12:37:35.074Z,3.57
2017-12-08T12:40:02.622Z,4.13
2017-12-08T12:42:30.097Z,3.67
2017-12-08T12:44:57.574Z,4.40
2017-12-08T12:47:25.140Z,3.70
2017-12-08T12:49:52.701Z,3.43
2017-12-08T12:52:20.205Z,3.70
2017-12-08T12:54:47.684Z,5.17
2017-12-08T12:57:15.188Z,4.37
2017-12-08T12:59:42.717Z,3.43
2017-12-08T13:02:10.187Z,5.00
2017-12-08T13:04:37.679Z,4.27
2017-12-08T13:07:05.226Z,3.47
2017-12-08T13:09:32.707Z,4.40
2017-12-08T13:12:00.172Z,3.33
2017-12-08T13:14:27.679Z,4.63
2017-12-08T13:16:55.157Z,11.33
2017-12-08T13:19:22.755Z,5.17
2017-12-08T13:21:50.268Z,4.73
2017-12-08T13:24:17.748Z,5.90
2017-12-08T13:26:45.224Z,4.30
2017-12-08T13:29:12.832Z,3.90
2017-12-08T13:31:40.417Z,4.83
2017-12-08T13:34:07.887Z,5.50
2017-12-08T13:36:35.407Z,4.50
2017-12-08T13:39:02.924Z,4.23
2017-12-08T13:41:30.396Z,5.50
2017-12-08T13:43:57.915Z,3.80
2017-12-08T13:46:25.399Z,3.90
2017-12-08T13:48:52.883Z,5.10
2017-12-08T13:51:20.480Z,3.93
2017-12-08T13:53:59.999Z,5.20
2017-12-08T13:56:39.494Z,4.67
2017-12-08T13:59:06.979Z,4.40
2017-12-08T14:01:34.547Z,15.03
2017-12-08T14:04:02.218Z,5.57
2017-12-08T14:06:29.695Z,4.70
2017-12-08T14:08:57.188Z,4.80
2017-12-08T14:11:24.691Z,5.57
2017-12-08T14:13:52.204Z,6.53
2017-12-08T14:16:19.706Z,4.40
2017-12-08T14:18:47.180Z,3.37
2017-12-08T14:21:14.708Z,3.27
2017-12-08T14:23:42.189Z,4.50
2017-12-08T14:26:09.668Z,4.70
2017-12-08T14:28:37.403Z,3.33
2017-12-08T14:31:04.908Z,3.33
2017-12-08T14:33:32.456Z,3.97
2017-12-08T14:35:59.979Z,3.47
2017-12-08T14:38:27.483Z,3.57
2017-12-08T14:40:54.960Z,3.20
2017-12-08T14:43:22.472Z,3.90
2017-12-08T14:45:49.978Z,4.30
2017-12-08T14:48:17.489Z,3.53
2017-12-08T14:50:45.025Z,3.77
2017-12-08T14:53:12.494Z,4.40
2017-12-08T14:55:39.983Z,4.10
2017-12-08T14:58:07.492Z,4.17
2017-12-08T15:00:34.967Z,3.40
2017-12-08T15:03:02.458Z,5.37
2017-12-08T15:05:30.009Z,4.43
2017-12-08T15:07:57.495Z,5.30
2017-12-08T15:10:24.966Z,3.80
2017-12-08T15:12:52.487Z,4.07
2017-12-08T15:15:20.026Z,4.40
2017-12-08T15:17:47.507Z,4.60
2017-12-08T15:20:14.977Z,4.43
2017-12-08T15:22:42.502Z,5.10
2017-12-08T15:25:10.028Z,4.30
2017-12-08T15:27:37.503Z,4.10
2017-12-08T15:30:05.267Z,3.73
2017-12-08T15:32:32.747Z,4.03
2017-12-08T15:35:00.411Z,3.77
2017-12-08T15:37:28.390Z,4.40
2017-12-08T15:39:55.928Z,4.70
2017-12-08T15:42:23.870Z,4.70
2017-12-08T15:44:51.529Z,4.50
2017-12-08T15:47:19.491Z,4.00
2017-12-08T15:49:47.458Z,5.73
2017-12-08T15:52:15.281Z,5.53
2017-12-08T15:54:43.228Z,5.00
2017-12-08T15:57:11.371Z,6.57
2017-12-08T15:59:39.131Z,4.57
2017-12-08T16:02:06.829Z,3.50
2017-12-08T16:04:34.468Z,3.90
2017-12-08T16:07:02.361Z,3.10
2017-12-08T16:09:30.204Z,4.00
2017-12-08T16:11:57.862Z,2.77
2017-12-08T16:14:25.858Z,4.33
2017-12-08T16:16:53.899Z,4.97
2017-12-08T16:19:21.499Z,5.60
2017-12-08T16:21:49.085Z,5.57
2017-12-08T16:24:16.947Z,3.93
2017-12-08T16:26:44.521Z,3.93
2017-12-08T16:29:12.031Z,4.47
2017-12-08T16:31:39.514Z,3.67
2017-12-08T16:34:07.727Z,5.30
2017-12-08T16:36:35.236Z,3.97
2017-12-08T16:39:02.907Z,4.40
2017-12-08T16:41:30.385Z,5.60
2017-12-08T16:43:57.903Z,8.20
2017-12-08T16:46:25.372Z,5.97
2017-12-08T16:48:52.857Z,5.20
2017-12-08T16:51:20.389Z,4.43
2017-12-08T16:53:47.883Z,6.00
2017-12-08T16:56:15.370Z,6.77
2017-12-08T16:58:42.877Z,4.40
2017-12-08T17:01:10.359Z,5.37
2017-12-08T17:03:37.935Z,4.43
2017-12-08T17:06:05.473Z,5.07
2017-12-08T17:08:32.964Z,5.47
2017-12-08T17:11:00.461Z,7.23
2017-12-08T17:13:27.967Z,5.60
2017-12-08T17:15:55.521Z,5.27
2017-12-08T17:18:22.991Z,4.90
2017-12-08T17:20:50.505Z,4.67
2017-12-08T17:23:18.029Z,5.47
2017-12-08T17:25:45.503Z,5.20
2017-12-08T17:28:13.226Z,5.40
2017-12-08T17:30:40.695Z,5.80
2017-12-08T17:33:08.164Z,4.77
2017-12-08T17:35:36.736Z,5.10
2017-12-08T17:38:04.213Z,4.70
2017-12-08T17:40:31.717Z,4.30
2017-12-08T17:42:59.322Z,4.97
2017-12-08T17:45:26.882Z,4.60
2017-12-08T17:47:54.387Z,4.93
2017-12-08T17:50:21.980Z,12.23
2017-12-08T17:52:49.463Z,6.57
2017-12-08T17:55:16.938Z,5.50
2017-12-08T17:57:44.439Z,5.27
2017-12-08T18:00:11.908Z,5.80
2017-12-08T18:02:39.382Z,6.00
2017-12-08T18:05:06.946Z,6.07
2017-12-08T18:07:34.506Z,6.00
2017-12-08T18:10:01.979Z,6.40
2017-12-08T18:12:29.598Z,6.60
2017-12-08T18:14:57.076Z,6.73
2017-12-08T18:17:24.547Z,6.40
2017-12-08T18:19:52.063Z,6.60
2017-12-08T18:22:19.543Z,6.20
2017-12-08T18:24:47.022Z,6.73
2017-12-08T18:27:14.523Z,6.00
2017-12-08T18:29:42.112Z,6.93
2017-12-08T18:32:09.665Z,6.90
2017-12-08T18:34:37.138Z,6.20
2017-12-08T18:37:04.707Z,7.20
2017-12-08T18:39:32.211Z,6.70
2017-12-08T18:41:59.683Z,7.33
2017-12-08T18:44:27.159Z,6.13
2017-12-08T18:46:54.687Z,6.10
2017-12-08T18:49:22.161Z,6.00
2017-12-08T18:51:49.638Z,7.10
2017-12-08T18:54:17.152Z,6.93
2017-12-08T18:56:44.638Z,8.20
2017-12-08T18:59:12.198Z,5.70
2017-12-08T19:01:39.712Z,8.40
2017-12-08T19:04:07.190Z,7.70
2017-12-08T19:06:34.688Z,9.50
2017-12-08T19:09:02.215Z,7.20
2017-12-08T19:11:30.175Z,7.40
2017-12-08T19:13:57.644Z,6.80
2017-12-08T19:16:25.159Z,6.60
2017-12-08T19:18:52.637Z,8.70
2017-12-08T19:21:20.145Z,7.73
2017-12-08T19:23:47.650Z,7.93
2017-12-08T19:26:15.123Z,8.07
2017-12-08T19:28:42.633Z,9.77
2017-12-08T19:31:10.159Z,9.00
2017-12-08T19:33:37.634Z,9.47
2017-12-08T19:36:05.119Z,9.50
2017-12-08T19:38:32.625Z,8.77
2017-12-08T19:41:00.118Z,10.07
2017-12-08T19:43:27.616Z,8.83
2017-12-08T19:45:55.122Z,7.80
2017-12-08T19:48:22.606Z,8.87
2017-12-08T19:50:50.147Z,10.77
2017-12-08T19:53:17.670Z,12.90
2017-12-08T19:55:45.154Z,9.40
2017-12-08T19:58:12.711Z,19.13
2017-12-08T20:00:40.232Z,10.83
2017-12-08T20:03:07.707Z,11.23
2017-12-08T20:05:35.287Z,12.57
2017-12-08T20:08:02.772Z,20.90
2017-12-08T20:10:30.252Z,14.37
2017-12-08T20:12:57.779Z,7.90
2017-12-08T20:15:25.266Z,8.20
2017-12-08T20:17:52.771Z,6.13
2017-12-08T20:20:20.279Z,7.20
2017-12-08T20:22:47.760Z,9.10
2017-12-08T20:25:15.255Z,10.23
2017-12-08T20:27:42.790Z,6.30
2017-12-08T20:30:10.265Z,9.00
2017-12-08T20:32:37.822Z,5.70
2017-12-08T20:35:05.360Z,7.63
2017-12-08T20:37:32.843Z,14.10
2017-12-08T20:40:00.329Z,8.00
2017-12-08T20:42:27.868Z,15.03
2017-12-08T20:44:55.356Z,15.37
2017-12-08T20:47:22.842Z,7.30
2017-12-08T20:49:50.371Z,6.77
2017-12-08T20:52:17.850Z,11.77
2017-12-08T20:54:45.333Z,12.10
2017-12-08T20:57:12.904Z,13.63
2017-12-08T20:59:40.396Z,9.00
2017-12-08T21:02:07.944Z,6.50
2017-12-08T21:04:35.443Z,8.50
2017-12-08T21:07:02.928Z,9.63
2017-12-08T21:09:30.535Z,8.67
2017-12-08T21:11:58.056Z,8.47
2017-12-08T21:14:25.616Z,7.47
2017-12-08T21:16:53.164Z,7.53
2017-12-08T21:19:20.755Z,9.40
2017-12-08T21:21:48.301Z,7.97
2017-12-08T21:24:15.818Z,6.87
2017-12-08T21:26:43.307Z,8.70
2017-12-08T21:29:10.866Z,13.27
2017-12-08T21:31:38.390Z,15.80
2017-12-08T21:34:05.874Z,7.43
2017-12-08T21:36:33.363Z,7.43
2017-12-08T21:39:00.917Z,12.57
2017-12-08T21:41:28.396Z,7.87
2017-12-08T21:43:55.923Z,8.20
2017-12-08T21:46:23.448Z,6.13
2017-12-08T21:48:50.945Z,11.30
2017-12-08T21:51:18.430Z,11.60
2017-12-08T21:53:45.950Z,15.83
2017-12-08T21:56:13.531Z,9.10
2017-12-08T21:58:41.008Z,11.50
2017-12-08T22:01:08.623Z,7.67
2017-12-08T22:03:36.117Z,7.87
2017-12-08T22:06:03.602Z,15.30
2017-12-08T22:08:31.119Z,9.37
2017-12-08T22:10:58.664Z,10.03
2017-12-08T22:13:26.143Z,8.63
2017-12-08T22:15:53.662Z,7.47
2017-12-08T22:18:21.150Z,8.53
2017-12-08T22:20:48.631Z,9.13
2017-12-08T22:23:16.146Z,6.40
2017-12-08T22:25:43.687Z,6.30
2017-12-08T22:28:11.140Z,6.10
2017-12-08T22:30:38.648Z,6.13
2017-12-08T22:33:06.130Z,10.30
2017-12-08T22:35:33.663Z,7.93
2017-12-08T22:38:01.143Z,11.67
2017-12-08T22:40:28.627Z,9.63
2017-12-08T22:42:56.139Z,18.63
2017-12-08T22:45:23.619Z,17.37
2017-12-08T22:47:51.107Z,20.73
2017-12-08T22:50:18.690Z,14.07
2017-12-08T22:52:46.163Z,7.23
2017-12-08T22:55:13.643Z,7.63
2017-12-08T22:57:41.181Z,14.27
2017-12-08T23:00:08.667Z,10.47
2017-12-08T23:02:36.156Z,8.77
2017-12-08T23:05:03.683Z,23.43
2017-12-08T23:07:31.171Z,10.20
2017-12-08T23:09:58.663Z,15.20
2017-12-08T23:12:26.227Z,17.80
2017-12-08T23:14:53.710Z,15.93
2017-12-08T23:17:21.220Z,15.63
2017-12-08T23:19:48.731Z,21.37
2017-12-08T23:22:16.232Z,12.90
2017-12-08T23:24:43.721Z,9.17
2017-12-08T23:27:11.250Z,13.07
2017-12-08T23:29:38.735Z,10.10
2017-12-08T23:32:06.215Z,11.70
2017-12-08T23:34:33.839Z,12.73
2017-12-08T23:37:01.325Z,27.47
2017-12-08T23:39:31.619Z,14.03
2017-12-08T23:41:59.283Z,15.67
2017-12-08T23:44:26.771Z,19.53
2017-12-08T23:46:54.290Z,11.73
2017-12-08T23:49:21.797Z,12.10
2017-12-08T23:51:49.283Z,10.33
2017-12-08T23:54:16.764Z,10.00
2017-12-08T23:56:44.345Z,15.93
2017-12-08T23:59:11.836Z,13.17
